createdAt,value
2022-09-07T00:00:03.747Z,2.60
2022-09-07T00:02:28.877Z,2.50
2022-09-07T00:04:53.023Z,2.53
2022-09-07T00:07:17.394Z,2.70
2022-09-07T00:09:41.510Z,2.60
2022-09-07T00:12:06.111Z,2.60
2022-09-07T00:14:31.723Z,2.43
2022-09-07T00:16:55.929Z,2.83
2022-09-07T00:19:19.988Z,2.70
2022-09-07T00:21:45.384Z,2.27
2022-09-07T00:24:09.504Z,2.60
2022-09-07T00:26:33.661Z,2.70
2022-09-07T00:28:59.916Z,2.50
2022-09-07T00:31:25.947Z,2.63
2022-09-07T00:33:51.361Z,2.90
2022-09-07T00:36:15.919Z,2.63
2022-09-07T00:38:41.352Z,2.60
2022-09-07T00:41:05.858Z,2.50
2022-09-07T00:43:33.102Z,2.77
2022-09-07T00:45:57.424Z,2.97
2022-09-07T00:48:26.951Z,2.50
2022-09-07T00:50:54.903Z,2.50
2022-09-07T00:53:24.451Z,2.70
2022-09-07T00:55:50.739Z,2.60
2022-09-07T00:58:15.217Z,2.77
2022-09-07T01:00:41.116Z,2.70
2022-09-07T01:03:06.678Z,2.60
2022-09-07T01:05:36.855Z,2.43
2022-09-07T01:08:01.198Z,2.23
2022-09-07T01:10:29.320Z,2.23
2022-09-07T01:12:53.703Z,2.30
2022-09-07T01:15:18.101Z,2.60
2022-09-07T01:17:55.038Z,2.53
2022-09-07T01:20:37.115Z,2.40
2022-09-07T01:23:36.472Z,2.30
2022-09-07T01:26:24.263Z,2.87
2022-09-07T01:28:56.572Z,2.33
2022-09-07T01:31:34.815Z,2.93
2022-09-07T01:34:06.803Z,2.20
2022-09-07T01:36:40.059Z,3.10
2022-09-07T01:39:06.180Z,2.50
2022-09-07T01:41:37.228Z,2.57
2022-09-07T01:44:09.221Z,2.70
2022-09-07T01:46:36.534Z,2.50
2022-09-07T01:49:08.352Z,2.60
2022-09-07T01:51:36.086Z,2.50
2022-09-07T01:54:04.433Z,2.60
2022-09-07T01:56:34.798Z,2.37
2022-09-07T01:59:02.384Z,2.70
2022-09-07T02:01:33.127Z,2.70
2022-09-07T02:04:04.323Z,2.60
2022-09-07T02:06:35.699Z,2.53
2022-09-07T02:09:06.162Z,2.90
2022-09-07T02:11:36.550Z,2.40
2022-09-07T02:14:05.988Z,3.00
2022-09-07T02:16:33.589Z,2.53
2022-09-07T02:19:00.543Z,2.60
2022-09-07T02:21:30.597Z,2.57
2022-09-07T02:23:59.254Z,2.90
2022-09-07T02:26:26.574Z,2.50
2022-09-07T02:28:50.991Z,2.80
2022-09-07T02:31:16.001Z,2.50
2022-09-07T02:33:43.144Z,2.90
2022-09-07T02:36:08.353Z,2.70
2022-09-07T02:38:32.961Z,2.93
2022-09-07T02:40:59.551Z,2.70
2022-09-07T02:43:25.493Z,2.50
2022-09-07T02:46:02.584Z,2.57
2022-09-07T02:48:36.674Z,2.70
2022-09-07T02:51:16.785Z,3.20
2022-09-07T02:54:09.909Z,2.77
2022-09-07T02:56:52.263Z,2.77
2022-09-07T02:59:30.636Z,2.90
2022-09-07T03:02:00.790Z,2.93
2022-09-07T03:04:30.627Z,3.10
2022-09-07T03:07:04.728Z,3.00
2022-09-07T03:09:36.491Z,3.10
2022-09-07T03:12:04.045Z,3.20
2022-09-07T03:14:30.615Z,2.93
2022-09-07T03:16:57.547Z,2.60
2022-09-07T03:19:21.666Z,3.10
2022-09-07T03:21:46.024Z,2.93
2022-09-07T03:24:11.952Z,2.80
2022-09-07T03:26:40.344Z,3.13
2022-09-07T03:29:04.382Z,3.00
2022-09-07T03:31:28.638Z,3.10
2022-09-07T03:33:52.705Z,3.10
2022-09-07T03:36:16.844Z,2.90
2022-09-07T03:38:40.929Z,2.57
2022-09-07T03:41:07.948Z,3.00
2022-09-07T03:43:33.125Z,3.07
2022-09-07T03:46:01.264Z,3.00
2022-09-07T03:48:25.570Z,2.80
2022-09-07T03:50:57.363Z,2.90
2022-09-07T03:53:21.551Z,3.10
2022-09-07T03:55:45.567Z,2.80
2022-09-07T03:58:10.997Z,2.77
2022-09-07T04:00:35.459Z,2.37
2022-09-07T04:02:59.485Z,3.10
2022-09-07T04:05:24.264Z,2.97
2022-09-07T04:07:49.680Z,2.83
2022-09-07T04:10:13.780Z,3.10
2022-09-07T04:12:37.931Z,2.60
2022-09-07T04:15:03.500Z,3.03
2022-09-07T04:17:27.580Z,3.20
2022-09-07T04:19:52.405Z,3.03
2022-09-07T04:22:16.501Z,2.60
2022-09-07T04:24:40.603Z,3.67
2022-09-07T04:27:04.685Z,4.60
2022-09-07T04:29:28.804Z,3.23
2022-09-07T04:31:54.575Z,3.87
2022-09-07T04:34:18.903Z,3.30
2022-09-07T04:36:43.095Z,3.60
2022-09-07T04:39:07.420Z,3.83
2022-09-07T04:41:33.494Z,3.90
2022-09-07T04:43:59.275Z,3.27
2022-09-07T04:46:25.542Z,3.80
2022-09-07T04:48:52.188Z,3.10
2022-09-07T04:51:16.803Z,3.80
2022-09-07T04:53:40.870Z,3.20
2022-09-07T04:56:06.249Z,3.73
2022-09-07T04:58:31.738Z,3.50
2022-09-07T05:00:56.057Z,3.60
2022-09-07T05:03:20.130Z,3.63
2022-09-07T05:05:46.158Z,3.40
2022-09-07T05:08:10.287Z,3.80
2022-09-07T05:10:34.467Z,4.57
2022-09-07T05:12:59.461Z,3.87
2022-09-07T05:15:23.501Z,4.00
2022-09-07T05:17:47.596Z,4.27
2022-09-07T05:20:12.052Z,4.17
2022-09-07T05:22:41.090Z,4.07
2022-09-07T05:25:05.602Z,4.00
2022-09-07T05:27:31.034Z,4.10
2022-09-07T05:30:03.732Z,4.17
2022-09-07T05:32:29.841Z,4.17
2022-09-07T05:34:54.110Z,4.20
2022-09-07T05:37:18.249Z,4.30
2022-09-07T05:39:44.707Z,5.37
2022-09-07T05:42:09.021Z,5.17
2022-09-07T05:47:05.403Z,6.03
2022-09-07T05:49:29.813Z,6.75
2022-09-07T05:51:55.091Z,6.25
2022-09-07T05:54:19.406Z,7.35
2022-09-07T05:56:44.908Z,7.47
2022-09-07T05:59:09.011Z,7.75
2022-09-07T06:01:35.471Z,8.00
2022-09-07T06:03:59.766Z,8.20
2022-09-07T06:06:23.983Z,8.45
2022-09-07T06:08:50.190Z,7.30
2022-09-07T06:11:16.710Z,6.30
2022-09-07T06:13:43.191Z,6.50
2022-09-07T06:16:09.292Z,5.10
2022-09-07T06:18:34.896Z,5.65
2022-09-07T06:21:03.989Z,4.88
2022-09-07T06:23:28.095Z,5.90
2022-09-07T06:25:52.252Z,15.82
2022-09-07T06:28:16.315Z,4.18
2022-09-07T06:30:41.725Z,3.50
2022-09-07T06:33:05.831Z,3.55
2022-09-07T06:35:30.301Z,3.38
2022-09-07T06:37:54.361Z,3.30
2022-09-07T06:40:18.795Z,3.80
2022-09-07T06:42:42.926Z,3.75
2022-09-07T06:45:11.277Z,3.85
2022-09-07T06:47:37.252Z,3.08
2022-09-07T06:50:01.834Z,2.88
2022-09-07T06:52:28.227Z,2.67
2022-09-07T06:54:59.899Z,2.85
2022-09-07T06:57:32.362Z,4.10
2022-09-07T06:59:56.608Z,3.70
2022-09-07T07:02:20.738Z,3.42
2022-09-07T07:04:46.688Z,3.92
2022-09-07T07:07:15.030Z,3.55
2022-09-07T07:09:39.455Z,3.80
2022-09-07T07:12:04.450Z,3.33
2022-09-07T07:14:31.015Z,3.70
2022-09-07T07:16:56.406Z,3.38
2022-09-07T07:19:20.540Z,3.55
2022-09-07T07:22:10.751Z,3.88
2022-09-07T07:24:30.229Z,3.75
2022-09-07T07:26:54.420Z,3.67
2022-09-07T07:29:19.002Z,3.45
2022-09-07T07:31:43.304Z,3.55
2022-09-07T07:34:07.632Z,3.53
2022-09-07T07:36:31.903Z,3.60
2022-09-07T07:38:59.656Z,3.63
2022-09-07T07:44:10.953Z,4.00
2022-09-07T07:46:35.161Z,4.00
2022-09-07T07:49:00.215Z,4.10
2022-09-07T07:51:24.906Z,3.90
2022-09-07T07:53:48.988Z,4.07
2022-09-07T07:56:14.890Z,3.90
2022-09-07T07:58:39.908Z,4.28
2022-09-07T08:01:08.119Z,3.83
2022-09-07T08:03:36.521Z,4.63
2022-09-07T08:06:08.137Z,3.80
2022-09-07T08:08:32.350Z,3.75
2022-09-07T08:10:56.497Z,3.85
2022-09-07T08:13:22.526Z,3.80
2022-09-07T08:15:46.925Z,4.10
2022-09-07T08:18:13.127Z,3.97
2022-09-07T08:20:37.010Z,3.67
2022-09-07T08:23:01.031Z,3.28
2022-09-07T08:25:25.487Z,4.15
2022-09-07T08:27:49.393Z,3.67
2022-09-07T08:30:14.888Z,4.03
2022-09-07T08:32:39.067Z,3.67
2022-09-07T08:35:03.223Z,4.53
2022-09-07T08:37:27.687Z,4.20
2022-09-07T08:39:51.798Z,3.90
2022-09-07T08:42:39.028Z,3.75
2022-09-07T08:45:07.471Z,4.13
2022-09-07T08:47:39.170Z,3.70
2022-09-07T08:50:09.588Z,3.85
2022-09-07T08:52:47.748Z,3.97
2022-09-07T08:55:18.758Z,3.63
2022-09-07T08:57:50.143Z,4.25
2022-09-07T09:00:16.972Z,5.03
2022-09-07T09:05:33.099Z,3.80
2022-09-07T09:06:11.377Z,3.80
2022-09-07T09:08:10.528Z,3.83
2022-09-07T09:10:42.089Z,3.67
2022-09-07T09:13:16.480Z,4.05
2022-09-07T09:15:53.589Z,4.10
2022-09-07T09:18:32.637Z,4.00
2022-09-07T09:20:58.201Z,4.47
2022-09-07T09:23:26.806Z,4.20
2022-09-07T09:25:54.977Z,4.47
2022-09-07T09:28:19.396Z,4.30
2022-09-07T09:30:43.415Z,3.60
2022-09-07T09:33:17.194Z,4.18
2022-09-07T09:35:43.948Z,3.80
2022-09-07T09:38:29.991Z,4.07
2022-09-07T09:40:54.984Z,3.58
2022-09-07T09:43:21.264Z,3.70
2022-09-07T09:48:34.713Z,3.85
2022-09-07T09:53:56.009Z,3.35
2022-09-07T09:56:20.239Z,3.80
2022-09-07T10:01:35.301Z,4.20
2022-09-07T10:04:16.527Z,3.35
2022-09-07T10:06:52.408Z,3.85
2022-09-07T10:09:21.134Z,3.50
2022-09-07T10:14:34.186Z,3.58
2022-09-07T10:16:59.097Z,3.92
2022-09-07T10:19:30.795Z,3.60
2022-09-07T10:22:01.814Z,3.35
2022-09-07T10:24:27.959Z,3.83
2022-09-07T10:26:53.211Z,3.10
2022-09-07T10:29:23.177Z,3.60
2022-09-07T10:32:02.599Z,3.95
2022-09-07T10:34:33.483Z,3.40
2022-09-07T10:37:04.912Z,3.55
2022-09-07T10:39:35.779Z,3.78
2022-09-07T10:42:06.556Z,3.78
2022-09-07T10:44:43.492Z,3.60
2022-09-07T10:47:16.674Z,3.75
2022-09-07T10:52:42.319Z,3.17
2022-09-07T10:55:13.129Z,5.97
2022-09-07T10:57:49.156Z,6.97
2022-09-07T11:00:16.146Z,6.60
2022-09-07T11:06:04.199Z,4.55
2022-09-07T11:14:16.319Z,4.60
2022-09-07T11:16:53.953Z,7.85
2022-09-07T11:19:38.719Z,6.30
2022-09-07T11:22:16.128Z,24.05
2022-09-07T11:24:47.815Z,8.63
2022-09-07T11:27:17.045Z,5.00
2022-09-07T11:29:48.361Z,3.78
2022-09-07T11:32:18.163Z,3.55
2022-09-07T11:34:47.715Z,4.10
2022-09-07T11:37:18.010Z,12.27
2022-09-07T11:39:48.513Z,10.50
2022-09-07T11:45:07.172Z,9.70
2022-09-07T11:47:39.339Z,12.60
2022-09-07T11:50:03.593Z,9.80
2022-09-07T11:52:35.557Z,6.28
2022-09-07T11:55:04.700Z,4.80
2022-09-07T11:57:45.220Z,6.65
2022-09-07T12:00:15.845Z,5.60
2022-09-07T12:03:12.114Z,4.65
2022-09-07T12:06:00.936Z,4.70
2022-09-07T12:08:39.763Z,5.03
2022-09-07T12:11:24.340Z,4.53
2022-09-07T12:14:10.695Z,4.55
2022-09-07T12:16:49.349Z,5.05
2022-09-07T12:19:21.392Z,5.13
2022-09-07T12:21:48.462Z,4.57
2022-09-07T12:24:36.778Z,4.40
2022-09-07T12:27:03.436Z,4.45
2022-09-07T12:29:29.131Z,4.47
2022-09-07T12:32:07.368Z,4.40
2022-09-07T12:34:58.122Z,4.10
2022-09-07T12:37:42.464Z,4.40
2022-09-07T12:41:01.271Z,5.03
2022-09-07T12:44:08.332Z,4.00
2022-09-07T12:46:51.915Z,4.57
2022-09-07T12:49:30.675Z,4.18
2022-09-07T12:52:14.212Z,4.47
2022-09-07T12:54:42.675Z,4.50
2022-09-07T12:57:29.564Z,4.60
2022-09-07T13:00:11.682Z,4.88
2022-09-07T13:02:55.983Z,4.65
2022-09-07T13:05:33.419Z,4.40
2022-09-07T13:08:22.057Z,3.80
2022-09-07T13:10:47.203Z,4.28
2022-09-07T13:14:02.642Z,4.82
2022-09-07T13:16:30.954Z,4.38
2022-09-07T13:18:55.468Z,4.72
2022-09-07T13:21:40.826Z,4.40
2022-09-07T13:24:50.177Z,4.30
2022-09-07T13:27:38.804Z,4.15
2022-09-07T13:30:21.139Z,4.40
2022-09-07T13:35:32.030Z,7.82
2022-09-07T13:37:57.920Z,7.88
2022-09-07T13:40:26.645Z,7.70
2022-09-07T13:42:53.262Z,7.35
2022-09-07T13:45:31.131Z,7.93
2022-09-07T13:48:05.313Z,11.00
2022-09-07T13:50:39.131Z,5.65
2022-09-07T13:53:28.651Z,5.05
2022-09-07T13:56:04.249Z,4.55
2022-09-07T13:58:31.004Z,5.53
2022-09-07T14:00:57.591Z,4.53
2022-09-07T14:03:25.172Z,4.07
2022-09-07T14:05:49.161Z,4.93
2022-09-07T14:08:26.135Z,4.60
2022-09-07T14:10:50.236Z,4.63
2022-09-07T14:13:14.179Z,4.47
2022-09-07T14:15:42.547Z,5.93
2022-09-07T14:18:07.930Z,4.28
2022-09-07T14:20:39.567Z,5.20
2022-09-07T14:23:03.627Z,4.55
2022-09-07T14:25:27.765Z,4.88
2022-09-07T14:27:51.944Z,4.13
2022-09-07T14:30:17.509Z,4.47
2022-09-07T14:32:41.907Z,4.32
2022-09-07T14:35:12.139Z,4.65
2022-09-07T14:37:38.360Z,4.10
2022-09-07T14:40:04.404Z,4.65
2022-09-07T14:42:28.406Z,4.50
2022-09-07T14:45:12.701Z,4.18
2022-09-07T14:47:37.683Z,4.10
2022-09-07T14:50:05.993Z,4.45
2022-09-07T14:52:36.779Z,4.95
2022-09-07T14:55:19.895Z,3.70
2022-09-07T14:57:43.821Z,4.28
2022-09-07T15:00:22.725Z,4.70
2022-09-07T15:02:46.667Z,4.53
2022-09-07T15:05:20.509Z,4.32
2022-09-07T15:07:48.748Z,4.68
2022-09-07T15:10:28.787Z,4.70
2022-09-07T15:12:54.916Z,4.43
2022-09-07T15:15:26.275Z,4.53
2022-09-07T15:17:50.898Z,4.68
2022-09-07T15:20:38.359Z,4.55
2022-09-07T15:23:03.858Z,4.55
2022-09-07T15:25:30.585Z,5.50
2022-09-07T15:27:55.699Z,4.93
2022-09-07T15:30:19.731Z,5.38
2022-09-07T15:32:43.660Z,4.57
2022-09-07T15:35:08.163Z,4.93
2022-09-07T15:40:20.538Z,5.22
2022-09-07T15:43:06.614Z,5.03
2022-09-07T15:45:29.896Z,4.47
2022-09-07T15:47:54.008Z,5.10
2022-09-07T15:50:18.454Z,4.45
2022-09-07T15:52:42.732Z,4.70
2022-09-07T15:55:11.815Z,5.40
2022-09-07T15:57:59.249Z,4.75
2022-09-07T16:00:21.539Z,4.72
2022-09-07T16:05:31.345Z,4.65
2022-09-07T16:10:40.416Z,4.60
2022-09-07T16:13:10.826Z,4.97
2022-09-07T16:15:36.842Z,4.43
2022-09-07T16:18:01.198Z,4.38
2022-09-07T16:20:25.271Z,5.30
2022-09-07T16:25:33.365Z,4.95
2022-09-07T16:27:58.053Z,3.75
2022-09-07T16:30:22.324Z,3.92
2022-09-07T16:32:48.168Z,4.20
2022-09-07T16:35:12.222Z,4.28
2022-09-07T16:37:36.166Z,4.50
2022-09-07T16:40:00.273Z,4.40
2022-09-07T16:42:24.196Z,3.92
2022-09-07T16:44:48.102Z,4.53
2022-09-07T16:47:12.833Z,4.57
2022-09-07T16:49:39.146Z,4.38
2022-09-07T16:52:05.295Z,4.10
2022-09-07T16:54:29.218Z,4.28
2022-09-07T16:56:53.610Z,3.75
2022-09-07T16:59:20.289Z,4.13
2022-09-07T17:01:44.288Z,4.75
2022-09-07T17:04:11.220Z,4.45
2022-09-07T17:06:37.079Z,3.88
2022-09-07T17:09:01.318Z,4.63
2022-09-07T17:11:26.812Z,4.25
2022-09-07T17:13:51.744Z,4.35
2022-09-07T17:16:17.693Z,4.45
2022-09-07T17:21:29.279Z,3.95
2022-09-07T17:23:55.803Z,4.18
2022-09-07T17:26:21.719Z,4.28
2022-09-07T17:28:47.302Z,4.60
2022-09-07T17:32:23.941Z,4.68
2022-09-07T17:33:59.676Z,4.22
2022-09-07T17:36:24.829Z,4.38
2022-09-07T17:39:19.297Z,4.75
2022-09-07T17:41:34.107Z,4.35
2022-09-07T17:44:00.045Z,4.97
2022-09-07T17:46:25.934Z,4.68
2022-09-07T17:48:52.136Z,4.28
2022-09-07T17:51:18.297Z,4.40
2022-09-07T17:53:45.298Z,4.15
2022-09-07T17:56:13.528Z,4.68
2022-09-07T17:58:40.178Z,3.97
2022-09-07T18:01:05.612Z,4.40
2022-09-07T18:03:34.751Z,4.22
2022-09-07T18:06:00.363Z,4.82
2022-09-07T18:08:24.909Z,4.57
2022-09-07T18:13:36.311Z,3.97
2022-09-07T18:16:02.941Z,4.28
2022-09-07T18:18:27.478Z,4.60
2022-09-07T18:20:51.426Z,5.22
2022-09-07T18:23:15.449Z,4.82
2022-09-07T18:25:39.895Z,4.80
2022-09-07T18:30:49.433Z,5.80
2022-09-07T18:33:14.871Z,8.13
2022-09-07T18:35:39.037Z,4.82
2022-09-07T18:38:03.122Z,6.80
2022-09-07T18:40:27.189Z,5.20
2022-09-07T18:42:52.589Z,4.90
2022-09-07T18:45:31.987Z,5.25
2022-09-07T18:47:56.719Z,6.07
2022-09-07T18:50:23.333Z,5.78
2022-09-07T18:52:57.422Z,5.07
2022-09-07T18:55:28.720Z,4.97
2022-09-07T18:57:52.789Z,4.90
2022-09-07T19:00:17.929Z,5.25
2022-09-07T19:02:42.495Z,4.93
2022-09-07T19:07:52.972Z,5.30
2022-09-07T19:10:17.897Z,5.07
2022-09-07T19:12:45.647Z,5.63
2022-09-07T19:15:11.677Z,5.43
2022-09-07T19:17:35.955Z,4.77
2022-09-07T19:20:01.187Z,5.60
2022-09-07T19:22:27.955Z,5.43
2022-09-07T19:24:55.920Z,5.32
2022-09-07T19:27:21.660Z,5.27
2022-09-07T19:29:47.697Z,6.00
2022-09-07T19:32:13.140Z,5.00
2022-09-07T19:34:39.174Z,5.90
2022-09-07T19:37:03.549Z,5.20
2022-09-07T19:39:27.616Z,5.03
2022-09-07T19:41:53.050Z,5.53
2022-09-07T19:44:17.193Z,5.40
2022-09-07T19:46:42.828Z,5.00
2022-09-07T19:49:12.057Z,5.77
2022-09-07T19:51:36.894Z,5.33
2022-09-07T19:54:00.911Z,5.37
2022-09-07T19:56:24.848Z,5.47
2022-09-07T19:58:51.032Z,4.87
2022-09-07T20:01:17.775Z,5.03
2022-09-07T20:03:43.101Z,5.00
2022-09-07T20:06:08.305Z,4.50
2022-09-07T20:08:32.252Z,4.77
2022-09-07T20:11:02.044Z,4.70
2022-09-07T20:13:26.117Z,4.70
2022-09-07T20:15:51.557Z,4.60
2022-09-07T20:18:15.480Z,4.63
2022-09-07T20:20:39.675Z,4.80
2022-09-07T20:23:03.649Z,4.80
2022-09-07T20:25:27.603Z,4.83
2022-09-07T20:27:51.688Z,5.33
2022-09-07T20:30:17.931Z,5.10
2022-09-07T20:32:44.947Z,4.63
2022-09-07T20:35:09.872Z,4.93
2022-09-07T20:37:34.246Z,4.83
2022-09-07T20:39:58.084Z,4.87
2022-09-07T20:42:22.271Z,4.93
2022-09-07T20:44:47.104Z,5.30
2022-09-07T20:47:11.416Z,4.80
2022-09-07T20:49:37.656Z,4.73
2022-09-07T20:52:02.359Z,4.93
2022-09-07T20:54:26.562Z,5.33
2022-09-07T20:56:50.868Z,5.17
2022-09-07T20:59:15.812Z,5.40
2022-09-07T21:01:40.423Z,5.20
2022-09-07T21:04:06.415Z,5.30
2022-09-07T21:06:33.416Z,5.37
2022-09-07T21:08:58.273Z,5.07
2022-09-07T21:11:24.801Z,5.13
2022-09-07T21:13:49.508Z,5.13
2022-09-07T21:16:15.950Z,4.57
2022-09-07T21:18:40.987Z,5.33
2022-09-07T21:21:21.439Z,5.70
2022-09-07T21:23:48.124Z,5.10
2022-09-07T21:26:12.677Z,5.07
2022-09-07T21:28:37.631Z,5.10
2022-09-07T21:31:05.057Z,4.90
2022-09-07T21:33:31.251Z,4.77
2022-09-07T21:35:55.618Z,4.83
2022-09-07T21:38:19.931Z,4.83
2022-09-07T21:40:45.403Z,4.60
2022-09-07T21:43:09.386Z,5.07
2022-09-07T21:45:33.475Z,5.00
2022-09-07T21:47:57.352Z,4.73
2022-09-07T21:50:21.245Z,4.90
2022-09-07T21:52:45.397Z,4.50
2022-09-07T21:55:09.912Z,4.90
2022-09-07T21:57:35.586Z,5.23
2022-09-07T21:59:59.602Z,4.93
2022-09-07T22:02:23.739Z,5.03
2022-09-07T22:04:47.688Z,5.00
2022-09-07T22:07:11.928Z,4.80
2022-09-07T22:09:35.909Z,4.70
2022-09-07T22:12:00.206Z,5.30
2022-09-07T22:14:25.540Z,6.77
2022-09-07T22:16:49.643Z,8.93
2022-09-07T22:19:14.053Z,8.30
2022-09-07T22:21:38.586Z,8.37
2022-09-07T22:24:04.899Z,6.27
2022-09-07T22:26:30.353Z,5.23
2022-09-07T22:28:54.708Z,5.80
2022-09-07T22:31:22.081Z,5.10
2022-09-07T22:33:47.196Z,5.17
2022-09-07T22:36:13.439Z,4.30
2022-09-07T22:38:37.892Z,4.87
2022-09-07T22:41:08.118Z,4.67
2022-09-07T22:43:32.535Z,4.90
2022-09-07T22:45:56.653Z,4.77
2022-09-07T22:48:21.927Z,4.80
2022-09-07T22:50:46.329Z,4.63
2022-09-07T22:53:10.161Z,4.70
2022-09-07T22:55:34.007Z,5.03
2022-09-07T22:57:59.071Z,4.57
2022-09-07T23:00:23.249Z,4.60
2022-09-07T23:02:47.470Z,4.77
2022-09-07T23:05:13.028Z,4.60
2022-09-07T23:07:36.917Z,4.40
2022-09-07T23:10:00.981Z,4.50
2022-09-07T23:12:25.096Z,4.73
2022-09-07T23:14:49.124Z,4.53
2022-09-07T23:17:13.060Z,5.00
2022-09-07T23:19:37.244Z,4.67
2022-09-07T23:22:03.162Z,4.57
2022-09-07T23:24:27.268Z,4.50
2022-09-07T23:26:51.615Z,5.27
2022-09-07T23:29:16.574Z,4.53
2022-09-07T23:31:41.053Z,4.40
2022-09-07T23:34:05.432Z,4.47
2022-09-07T23:36:29.475Z,4.50
2022-09-07T23:38:57.042Z,4.80
2022-09-07T23:41:22.155Z,4.60
2022-09-07T23:43:46.340Z,4.53
2022-09-07T23:46:11.642Z,4.80
2022-09-07T23:48:35.696Z,4.57
2022-09-07T23:50:59.595Z,4.40
2022-09-07T23:53:23.951Z,4.93
2022-09-07T23:55:51.595Z,4.60
2022-09-07T23:58:15.800Z,5.60
